createdAt,value
2018-01-29T00:02:19.886Z,7.40
2018-01-29T00:04:47.388Z,7.40
2018-01-29T00:07:14.945Z,7.40
2018-01-29T00:09:42.425Z,7.40
2018-01-29T00:12:09.915Z,7.40
2018-01-29T00:14:37.503Z,7.40
2018-01-29T00:17:04.972Z,7.40
2018-01-29T00:19:32.484Z,7.40
2018-01-29T00:21:59.976Z,7.40
2018-01-29T00:24:28.223Z,7.40
2018-01-29T00:26:55.695Z,7.40
2018-01-29T00:29:23.951Z,7.40
2018-01-29T00:31:51.412Z,7.40
2018-01-29T00:34:18.920Z,7.40
2018-01-29T00:36:46.391Z,7.40
2018-01-29T00:39:13.881Z,7.40
2018-01-29T00:41:41.326Z,7.40
2018-01-29T00:44:08.867Z,7.40
2018-01-29T00:46:36.340Z,7.40
2018-01-29T00:49:03.796Z,7.40
2018-01-29T00:51:31.326Z,7.40
2018-01-29T00:53:58.796Z,7.40
2018-01-29T00:56:26.294Z,7.50
2018-01-29T00:58:53.751Z,7.40
2018-01-29T01:01:21.243Z,7.40
2018-01-29T01:03:48.733Z,7.50
2018-01-29T01:06:16.225Z,7.50
2018-01-29T01:08:43.706Z,7.50
2018-01-29T01:11:11.969Z,7.50
2018-01-29T01:13:40.211Z,7.50
2018-01-29T01:16:07.711Z,7.40
2018-01-29T01:18:35.960Z,7.50
2018-01-29T01:21:03.460Z,7.40
2018-01-29T01:23:30.919Z,7.50
2018-01-29T01:25:58.532Z,7.50
2018-01-29T01:28:26.049Z,7.50
2018-01-29T01:30:53.507Z,7.50
2018-01-29T01:33:20.990Z,7.50
2018-01-29T01:35:48.483Z,7.50
2018-01-29T01:38:16.764Z,7.50
2018-01-29T01:40:45.013Z,7.50
2018-01-29T01:43:12.504Z,7.50
2018-01-29T01:45:40.738Z,7.50
2018-01-29T01:48:08.238Z,7.50
2018-01-29T01:50:36.472Z,7.50
2018-01-29T01:53:03.961Z,7.50
2018-01-29T01:55:31.437Z,7.50
2018-01-29T01:57:59.017Z,7.50
2018-01-29T02:00:26.482Z,7.50
2018-01-29T02:02:53.987Z,7.50
2018-01-29T02:05:21.464Z,7.50
2018-01-29T02:07:49.838Z,7.50
2018-01-29T02:10:18.074Z,7.50
2018-01-29T02:12:45.553Z,7.40
2018-01-29T02:15:13.064Z,7.40
2018-01-29T02:17:40.674Z,7.40
2018-01-29T02:20:08.134Z,7.40
2018-01-29T02:22:35.596Z,7.50
2018-01-29T02:25:03.854Z,7.40
2018-01-29T02:27:31.364Z,7.40
2018-01-29T02:29:58.890Z,7.50
2018-01-29T02:32:27.125Z,7.50
2018-01-29T02:34:54.670Z,7.50
2018-01-29T02:37:22.148Z,7.50
2018-01-29T02:39:49.654Z,7.50
2018-01-29T02:42:17.134Z,7.50
2018-01-29T02:44:44.655Z,7.50
2018-01-29T02:47:12.883Z,7.50
2018-01-29T02:49:40.422Z,7.50
2018-01-29T02:52:07.879Z,7.50
2018-01-29T02:54:35.563Z,7.50
2018-01-29T02:57:03.039Z,7.50
2018-01-29T02:59:30.545Z,7.50
2018-01-29T03:01:57.997Z,7.60
2018-01-29T03:04:25.505Z,7.50
2018-01-29T03:06:52.977Z,7.60
2018-01-29T03:09:20.488Z,7.60
2018-01-29T03:11:47.998Z,7.60
2018-01-29T03:14:15.501Z,7.60
2018-01-29T03:16:43.021Z,7.60
2018-01-29T03:19:10.518Z,7.60
2018-01-29T03:21:37.991Z,7.60
2018-01-29T03:24:05.488Z,7.60
2018-01-29T03:26:32.956Z,7.60
2018-01-29T03:29:00.602Z,7.60
2018-01-29T03:31:28.127Z,7.70
2018-01-29T03:33:55.606Z,7.60
2018-01-29T03:36:23.130Z,7.70
2018-01-29T03:38:50.593Z,7.60
2018-01-29T03:41:18.095Z,7.60
2018-01-29T03:43:45.565Z,7.60
2018-01-29T03:46:13.045Z,7.70
2018-01-29T03:48:40.531Z,7.70
2018-01-29T03:51:08.054Z,7.70
2018-01-29T03:53:36.280Z,7.70
2018-01-29T03:56:03.774Z,7.70
2018-01-29T03:58:32.017Z,7.60
2018-01-29T04:00:59.513Z,7.60
2018-01-29T04:03:27.744Z,7.70
2018-01-29T04:05:55.276Z,7.70
2018-01-29T04:08:22.721Z,7.70
2018-01-29T04:10:50.281Z,7.60
2018-01-29T04:13:17.730Z,7.60
2018-01-29T04:15:45.961Z,7.60
2018-01-29T04:18:13.508Z,7.60
2018-01-29T04:20:40.961Z,7.60
2018-01-29T04:23:08.463Z,7.70
2018-01-29T04:25:36.702Z,7.70
2018-01-29T04:28:04.204Z,7.70
2018-01-29T04:30:32.430Z,7.70
2018-01-29T04:32:59.928Z,7.70
2018-01-29T04:35:28.178Z,7.70
2018-01-29T04:37:55.686Z,7.70
2018-01-29T04:40:23.228Z,7.70
2018-01-29T04:42:51.659Z,7.70
2018-01-29T04:45:19.135Z,7.70
2018-01-29T04:47:46.650Z,7.70
2018-01-29T04:50:14.917Z,7.70
2018-01-29T04:52:42.405Z,7.70
2018-01-29T04:55:09.910Z,7.80
2018-01-29T04:57:38.130Z,7.70
2018-01-29T05:00:05.680Z,7.70
2018-01-29T05:02:33.183Z,7.70
2018-01-29T05:05:00.685Z,7.70
2018-01-29T05:07:28.156Z,7.70
2018-01-29T05:09:55.647Z,7.60
2018-01-29T05:12:23.192Z,7.70
2018-01-29T05:14:50.685Z,7.60
2018-01-29T05:17:18.255Z,7.70
2018-01-29T05:19:45.715Z,7.70
2018-01-29T05:22:13.955Z,7.70
2018-01-29T05:24:41.494Z,7.70
2018-01-29T05:27:08.938Z,7.70
2018-01-29T05:29:36.408Z,7.70
2018-01-29T05:32:03.924Z,7.70
2018-01-29T05:34:32.161Z,7.70
2018-01-29T05:37:05.383Z,7.70
2018-01-29T05:39:33.664Z,7.70
2018-01-29T05:42:01.944Z,7.70
2018-01-29T05:44:30.201Z,7.70
2018-01-29T05:46:57.693Z,7.70
2018-01-29T05:49:26.881Z,7.70
2018-01-29T05:51:54.572Z,7.70
2018-01-29T05:54:22.077Z,7.70
2018-01-29T05:56:49.561Z,7.70
2018-01-29T05:59:17.280Z,7.70
2018-01-29T06:01:44.744Z,7.70
2018-01-29T06:04:12.236Z,7.70
2018-01-29T06:06:40.507Z,7.70
2018-01-29T06:09:07.981Z,7.70
2018-01-29T06:11:35.456Z,7.70
2018-01-29T06:14:02.983Z,7.70
2018-01-29T06:16:31.230Z,7.70
2018-01-29T06:18:58.677Z,7.70
2018-01-29T06:21:26.168Z,7.70
2018-01-29T06:23:54.432Z,7.70
2018-01-29T06:26:21.898Z,7.70
2018-01-29T06:28:50.174Z,7.70
2018-01-29T06:31:18.425Z,7.70
2018-01-29T06:33:45.902Z,7.60
2018-01-29T06:36:13.388Z,7.70
2018-01-29T06:38:41.009Z,7.70
2018-01-29T06:41:08.480Z,7.70
2018-01-29T06:43:35.938Z,7.70
2018-01-29T06:46:04.213Z,7.70
2018-01-29T06:48:31.668Z,7.70
2018-01-29T06:50:59.191Z,7.70
2018-01-29T06:53:26.730Z,7.70
2018-01-29T06:55:54.186Z,7.70
2018-01-29T06:58:21.672Z,7.70
2018-01-29T07:00:49.209Z,7.80
2018-01-29T07:03:16.697Z,7.80
2018-01-29T07:05:44.196Z,7.80
2018-01-29T07:08:12.434Z,7.70
2018-01-29T07:10:39.923Z,7.70
2018-01-29T07:13:08.154Z,7.80
2018-01-29T07:15:35.669Z,7.70
2018-01-29T07:18:03.142Z,7.80
2018-01-29T07:20:30.643Z,7.70
2018-01-29T07:22:58.127Z,7.70
2018-01-29T07:25:26.392Z,7.70
2018-01-29T07:27:53.877Z,7.70
2018-01-29T07:30:21.371Z,7.70
2018-01-29T07:32:48.851Z,7.80
2018-01-29T07:35:16.364Z,7.80
2018-01-29T07:37:43.897Z,7.70
2018-01-29T07:40:12.154Z,7.70
2018-01-29T07:42:39.638Z,7.70
2018-01-29T07:45:07.137Z,7.70
2018-01-29T07:47:34.599Z,7.70
2018-01-29T07:50:02.106Z,7.70
2018-01-29T07:52:30.345Z,7.70
2018-01-29T07:54:57.841Z,7.70
2018-01-29T07:57:25.333Z,7.70
2018-01-29T07:59:52.846Z,7.70
2018-01-29T08:02:21.081Z,7.80
2018-01-29T08:04:48.582Z,7.80
2018-01-29T08:07:16.814Z,7.90
2018-01-29T08:09:44.323Z,7.90
2018-01-29T08:12:12.563Z,8.00
2018-01-29T08:14:40.189Z,8.00
2018-01-29T08:17:08.437Z,8.00
2018-01-29T08:19:36.687Z,8.00
2018-01-29T08:22:04.193Z,8.00
2018-01-29T08:24:31.726Z,8.00
2018-01-29T08:26:59.974Z,8.00
2018-01-29T08:29:27.461Z,8.00
2018-01-29T08:31:55.731Z,8.00
2018-01-29T08:34:23.969Z,7.90
2018-01-29T08:36:51.501Z,7.90
2018-01-29T08:39:18.988Z,8.00
2018-01-29T08:41:46.497Z,8.00
2018-01-29T08:44:14.136Z,8.00
2018-01-29T08:46:42.405Z,8.00
2018-01-29T08:49:09.878Z,8.00
2018-01-29T08:51:37.372Z,8.00
2018-01-29T08:54:04.870Z,8.10
2018-01-29T08:56:32.363Z,8.10
2018-01-29T08:58:59.841Z,8.10
2018-01-29T09:01:27.339Z,8.10
2018-01-29T09:03:54.810Z,8.10
2018-01-29T09:06:22.326Z,8.20
2018-01-29T09:08:49.813Z,8.30
2018-01-29T09:11:17.315Z,8.30
2018-01-29T09:13:44.793Z,8.30
2018-01-29T09:16:12.304Z,8.30
2018-01-29T09:18:39.838Z,8.30
2018-01-29T09:21:07.310Z,8.30
2018-01-29T09:23:35.582Z,8.30
2018-01-29T09:26:03.065Z,8.30
2018-01-29T09:28:31.340Z,8.30
2018-01-29T09:30:59.586Z,8.40
2018-01-29T09:33:27.098Z,8.40
2018-01-29T09:35:54.572Z,8.40
2018-01-29T09:38:22.541Z,8.40
2018-01-29T09:40:50.015Z,8.40
2018-01-29T09:43:18.406Z,8.40
2018-01-29T09:45:45.888Z,8.40
2018-01-29T09:48:14.166Z,8.50
2018-01-29T09:50:42.415Z,8.50
2018-01-29T09:53:09.904Z,8.50
2018-01-29T09:55:38.147Z,8.50
2018-01-29T09:58:05.665Z,8.50
2018-01-29T10:00:33.144Z,8.50
2018-01-29T10:03:00.612Z,8.60
2018-01-29T10:05:28.149Z,8.60
2018-01-29T10:07:55.620Z,8.70
2018-01-29T10:10:23.114Z,8.70
2018-01-29T10:12:50.599Z,8.70
2018-01-29T10:15:18.096Z,8.80
2018-01-29T10:17:45.568Z,8.80
2018-01-29T10:20:13.073Z,8.80
2018-01-29T10:22:40.540Z,8.80
2018-01-29T10:25:08.026Z,8.80
2018-01-29T10:27:35.482Z,8.80
2018-01-29T10:30:03.017Z,8.90
2018-01-29T10:32:30.514Z,8.80
2018-01-29T10:34:58.013Z,8.90
2018-01-29T10:37:25.492Z,8.90
2018-01-29T10:39:52.988Z,8.90
2018-01-29T10:42:20.488Z,8.90
2018-01-29T10:44:48.003Z,8.90
2018-01-29T10:47:15.499Z,8.90
2018-01-29T10:49:43.774Z,8.90
2018-01-29T10:52:12.010Z,8.90
2018-01-29T10:54:39.518Z,8.90
2018-01-29T10:57:06.991Z,8.90
2018-01-29T10:59:34.492Z,8.90
2018-01-29T11:02:03.764Z,9.00
2018-01-29T11:04:31.254Z,9.10
2018-01-29T11:06:58.743Z,9.10
2018-01-29T11:09:26.240Z,9.10
2018-01-29T11:11:53.785Z,9.10
2018-01-29T11:14:22.033Z,9.10
2018-01-29T11:16:50.262Z,9.00
2018-01-29T11:19:17.762Z,9.00
2018-01-29T11:21:46.000Z,9.00
2018-01-29T11:24:13.614Z,9.00
2018-01-29T11:26:41.121Z,9.00
2018-01-29T11:29:08.571Z,9.10
2018-01-29T11:31:36.180Z,9.00
2018-01-29T11:34:03.641Z,9.10
2018-01-29T11:36:31.153Z,9.10
2018-01-29T11:38:58.624Z,9.10
2018-01-29T11:41:26.110Z,9.20
2018-01-29T11:43:53.577Z,9.20
2018-01-29T11:46:21.081Z,9.10
2018-01-29T11:48:48.561Z,9.10
2018-01-29T11:51:16.076Z,9.00
2018-01-29T11:53:43.554Z,9.00
2018-01-29T11:56:11.057Z,9.10
2018-01-29T11:58:39.288Z,9.10
2018-01-29T12:01:06.786Z,9.10
2018-01-29T12:03:35.023Z,9.10
2018-01-29T12:06:02.535Z,9.10
2018-01-29T12:08:30.026Z,9.20
2018-01-29T12:10:57.538Z,9.20
2018-01-29T12:13:25.017Z,9.20
2018-01-29T12:15:52.521Z,9.20
2018-01-29T12:18:19.971Z,9.20
2018-01-29T12:20:47.462Z,9.20
2018-01-29T12:23:15.751Z,9.30
2018-01-29T12:25:43.260Z,9.30
2018-01-29T12:28:10.720Z,9.30
2018-01-29T12:30:38.208Z,9.30
2018-01-29T12:33:05.718Z,9.30
2018-01-29T12:35:33.224Z,9.30
2018-01-29T12:38:01.443Z,9.30
2018-01-29T12:40:28.952Z,9.30
2018-01-29T12:42:57.212Z,9.30
2018-01-29T12:45:24.714Z,9.30
2018-01-29T12:47:52.174Z,9.30
2018-01-29T12:50:19.715Z,9.30
2018-01-29T12:52:47.960Z,9.30
2018-01-29T12:55:15.504Z,9.30
2018-01-29T12:57:43.034Z,9.30
2018-01-29T13:00:10.551Z,9.30
2018-01-29T13:02:38.038Z,9.30
2018-01-29T13:05:05.921Z,9.30
2018-01-29T13:07:33.375Z,9.40
2018-01-29T13:10:00.848Z,9.40
2018-01-29T13:12:28.358Z,9.30
2018-01-29T13:14:56.636Z,9.40
2018-01-29T13:17:24.898Z,9.50
2018-01-29T13:19:53.148Z,9.50
2018-01-29T13:22:20.671Z,9.50
2018-01-29T13:24:48.156Z,9.60
2018-01-29T13:27:15.646Z,9.60
2018-01-29T13:29:43.123Z,9.60
2018-01-29T13:32:11.389Z,9.70
2018-01-29T13:34:38.849Z,9.60
2018-01-29T13:37:06.338Z,9.60
2018-01-29T13:39:33.831Z,9.60
2018-01-29T13:42:01.321Z,9.60
2018-01-29T13:44:28.794Z,9.60
2018-01-29T13:46:56.407Z,9.60
2018-01-29T13:49:23.871Z,9.60
2018-01-29T13:51:51.361Z,9.60
2018-01-29T13:54:19.599Z,9.60
2018-01-29T13:56:47.149Z,9.60
2018-01-29T13:59:14.626Z,9.60
2018-01-29T14:01:42.138Z,9.60
2018-01-29T14:04:09.605Z,9.60
2018-01-29T14:06:37.101Z,9.50
2018-01-29T14:09:04.553Z,9.50
2018-01-29T14:11:32.054Z,9.50
2018-01-29T14:13:59.549Z,9.50
2018-01-29T14:16:27.035Z,9.50
2018-01-29T14:18:54.533Z,9.50
2018-01-29T14:21:21.990Z,9.40
2018-01-29T14:23:49.479Z,9.40
2018-01-29T14:26:16.995Z,9.40
2018-01-29T14:28:44.520Z,9.30
2018-01-29T14:31:11.980Z,9.30
2018-01-29T14:33:39.495Z,9.30
2018-01-29T14:36:06.961Z,9.20
2018-01-29T14:38:34.469Z,9.20
2018-01-29T14:41:02.759Z,9.10
2018-01-29T14:43:30.201Z,9.00
2018-01-29T14:45:58.471Z,8.90
2018-01-29T14:48:25.967Z,8.90
2018-01-29T14:50:53.435Z,8.90
2018-01-29T14:53:20.968Z,8.80
2018-01-29T14:55:49.603Z,8.80
2018-01-29T14:58:17.120Z,8.80
2018-01-29T15:00:44.588Z,8.80
2018-01-29T15:03:12.099Z,8.80
2018-01-29T15:05:39.560Z,8.80
2018-01-29T15:08:07.889Z,8.80
2018-01-29T15:10:35.345Z,8.80
2018-01-29T15:13:02.873Z,8.90
2018-01-29T15:15:31.107Z,8.90
2018-01-29T15:17:58.605Z,8.80
2018-01-29T15:20:27.698Z,8.80
2018-01-29T15:22:55.959Z,8.70
2018-01-29T15:25:23.435Z,8.70
2018-01-29T15:27:51.698Z,8.70
2018-01-29T15:30:19.922Z,8.70
2018-01-29T15:32:47.549Z,8.60
2018-01-29T15:35:15.062Z,8.60
2018-01-29T15:37:42.519Z,8.60
2018-01-29T15:40:10.023Z,8.60
2018-01-29T15:42:37.502Z,8.60
2018-01-29T15:45:05.036Z,8.60
2018-01-29T15:47:32.503Z,8.50
2018-01-29T15:49:59.987Z,8.50
2018-01-29T15:52:27.739Z,8.50
2018-01-29T15:54:55.270Z,8.50
2018-01-29T15:57:23.599Z,8.50
2018-01-29T15:59:51.088Z,8.50
2018-01-29T16:02:18.588Z,8.50
2018-01-29T16:04:46.092Z,8.50
2018-01-29T16:07:13.577Z,8.50
2018-01-29T16:09:41.843Z,8.50
2018-01-29T16:12:10.089Z,8.50
2018-01-29T16:14:37.592Z,8.50
2018-01-29T16:17:05.084Z,8.50
2018-01-29T16:19:32.559Z,8.60
2018-01-29T16:22:00.073Z,8.60
2018-01-29T16:24:27.559Z,8.60
2018-01-29T16:26:55.083Z,8.60
2018-01-29T16:29:22.555Z,8.70
2018-01-29T16:31:50.059Z,8.60
2018-01-29T16:34:17.596Z,8.60
2018-01-29T16:36:45.088Z,8.70
2018-01-29T16:39:12.569Z,8.70
2018-01-29T16:41:40.819Z,8.60
2018-01-29T16:44:08.320Z,8.60
2018-01-29T16:46:35.827Z,8.60
2018-01-29T16:49:03.279Z,8.60
2018-01-29T16:51:30.776Z,8.60
2018-01-29T16:53:59.047Z,8.60
2018-01-29T16:56:27.328Z,8.70
2018-01-29T16:58:55.641Z,8.60
2018-01-29T17:01:23.158Z,8.60
2018-01-29T17:03:50.650Z,8.60
2018-01-29T17:06:18.166Z,8.60
2018-01-29T17:08:46.406Z,8.60
2018-01-29T17:11:13.904Z,8.60
2018-01-29T17:13:42.149Z,8.60
2018-01-29T17:16:09.641Z,8.60
2018-01-29T17:18:37.883Z,8.60
2018-01-29T17:21:05.372Z,8.60
2018-01-29T17:23:33.627Z,8.60
2018-01-29T17:26:01.125Z,8.60
2018-01-29T17:28:28.604Z,8.60
2018-01-29T17:30:56.121Z,8.60
2018-01-29T17:33:24.343Z,8.60
2018-01-29T17:35:51.811Z,8.60
2018-01-29T17:38:19.317Z,8.60
2018-01-29T17:40:47.561Z,8.60
2018-01-29T17:43:15.043Z,8.60
2018-01-29T17:45:43.303Z,8.60
2018-01-29T17:48:10.850Z,8.60
2018-01-29T17:50:38.363Z,8.60
2018-01-29T17:53:05.866Z,8.60
2018-01-29T17:55:33.319Z,8.60
2018-01-29T17:58:00.813Z,8.60
2018-01-29T18:00:29.086Z,8.60
2018-01-29T18:02:56.588Z,8.60
2018-01-29T18:05:24.093Z,8.70
2018-01-29T18:07:51.613Z,8.70
2018-01-29T18:10:19.097Z,8.60
2018-01-29T18:12:46.610Z,8.70
2018-01-29T18:15:14.087Z,8.70
2018-01-29T18:17:41.580Z,8.80
2018-01-29T18:20:09.867Z,8.70
2018-01-29T18:22:38.133Z,8.70
2018-01-29T18:25:05.641Z,8.60
2018-01-29T18:27:33.157Z,8.70
2018-01-29T18:30:00.608Z,8.70
2018-01-29T18:32:28.086Z,8.70
2018-01-29T18:34:55.592Z,8.70
2018-01-29T18:37:23.072Z,8.70
2018-01-29T18:39:50.569Z,8.60
2018-01-29T18:42:18.029Z,8.60
2018-01-29T18:44:45.523Z,8.60
2018-01-29T18:47:12.992Z,8.60
2018-01-29T18:49:40.502Z,8.60
2018-01-29T18:52:07.978Z,8.60
2018-01-29T18:54:35.512Z,8.60
2018-01-29T18:57:03.758Z,8.60
2018-01-29T18:59:31.268Z,8.60
2018-01-29T19:01:58.723Z,8.70
2018-01-29T19:04:26.216Z,8.70
2018-01-29T19:06:53.776Z,8.70
2018-01-29T19:09:21.308Z,8.70
2018-01-29T19:11:48.791Z,8.70
2018-01-29T19:14:16.287Z,8.70
2018-01-29T19:16:44.544Z,8.70
2018-01-29T19:19:12.825Z,8.70
2018-01-29T19:21:40.301Z,8.70
2018-01-29T19:24:08.583Z,8.70
2018-01-29T19:26:36.069Z,8.70
2018-01-29T19:29:03.549Z,8.70
2018-01-29T19:31:31.062Z,8.80
2018-01-29T19:33:58.518Z,8.80
2018-01-29T19:36:26.078Z,8.80
2018-01-29T19:38:53.567Z,8.80
2018-01-29T19:41:21.083Z,8.80
2018-01-29T19:43:49.317Z,8.80
2018-01-29T19:46:16.858Z,8.80
2018-01-29T19:48:44.331Z,8.80
2018-01-29T19:51:11.850Z,8.80
2018-01-29T19:53:39.331Z,8.80
2018-01-29T19:56:06.906Z,8.80
2018-01-29T19:58:34.374Z,8.80
2018-01-29T20:01:01.884Z,8.80
2018-01-29T20:03:29.353Z,8.80
2018-01-29T20:05:56.871Z,8.80
2018-01-29T20:08:25.086Z,8.80
2018-01-29T20:10:52.596Z,8.80
2018-01-29T20:13:20.943Z,8.80
2018-01-29T20:15:49.195Z,8.90
2018-01-29T20:18:17.164Z,8.80
2018-01-29T20:20:44.684Z,8.80
2018-01-29T20:23:12.951Z,8.80
2018-01-29T20:25:41.198Z,8.80
2018-01-29T20:28:08.708Z,8.80
2018-01-29T20:30:36.178Z,8.80
2018-01-29T20:33:03.708Z,8.70
2018-01-29T20:35:31.934Z,8.50
2018-01-29T20:37:59.460Z,8.50
2018-01-29T20:40:26.940Z,8.50
2018-01-29T20:42:54.463Z,8.40
2018-01-29T20:45:21.945Z,8.40
2018-01-29T20:47:49.454Z,8.40
2018-01-29T20:50:16.939Z,8.40
2018-01-29T20:52:45.213Z,8.50
2018-01-29T20:55:13.447Z,8.50
2018-01-29T20:57:40.941Z,8.40
2018-01-29T21:00:09.184Z,8.50
2018-01-29T21:02:36.691Z,8.50
2018-01-29T21:05:04.150Z,8.50
2018-01-29T21:07:31.662Z,8.50
2018-01-29T21:09:59.130Z,8.50
2018-01-29T21:12:26.648Z,8.40
2018-01-29T21:14:54.163Z,8.40
2018-01-29T21:17:21.725Z,8.40
2018-01-29T21:19:49.960Z,8.30
2018-01-29T21:22:17.470Z,8.30
2018-01-29T21:24:44.944Z,8.30
2018-01-29T21:27:12.466Z,8.40
2018-01-29T21:29:39.926Z,8.30
2018-01-29T21:32:08.163Z,8.40
2018-01-29T21:34:35.693Z,8.30
2018-01-29T21:37:03.163Z,8.40
2018-01-29T21:39:30.691Z,8.40
2018-01-29T21:41:58.951Z,8.50
2018-01-29T21:44:27.230Z,8.50
2018-01-29T21:46:55.473Z,8.40
2018-01-29T21:49:22.992Z,8.40
2018-01-29T21:51:50.477Z,8.50
2018-01-29T21:54:17.970Z,8.50
2018-01-29T21:56:45.493Z,8.40
2018-01-29T21:59:12.978Z,8.40
2018-01-29T22:01:40.458Z,8.50
2018-01-29T22:04:08.723Z,8.50
2018-01-29T22:06:36.200Z,8.40
2018-01-29T22:09:03.714Z,8.50
2018-01-29T22:11:31.212Z,8.50
2018-01-29T22:13:59.461Z,8.50
2018-01-29T22:16:26.954Z,8.50
2018-01-29T22:18:55.191Z,8.50
2018-01-29T22:21:22.724Z,8.40
2018-01-29T22:23:50.215Z,8.40
2018-01-29T22:26:17.731Z,8.30
2018-01-29T22:28:45.202Z,8.30
2018-01-29T22:31:12.710Z,8.30
2018-01-29T22:33:40.943Z,8.20
2018-01-29T22:36:08.468Z,8.20
2018-01-29T22:38:35.924Z,8.20
2018-01-29T22:41:03.437Z,8.20
2018-01-29T22:43:31.691Z,8.20
2018-01-29T22:45:59.190Z,8.20
2018-01-29T22:48:26.653Z,8.20
2018-01-29T22:50:54.916Z,8.30
2018-01-29T22:53:23.184Z,8.20
2018-01-29T22:55:50.667Z,8.20
2018-01-29T22:58:18.940Z,8.20
2018-01-29T23:00:46.424Z,8.20
2018-01-29T23:03:13.949Z,8.30
2018-01-29T23:05:42.210Z,8.30
2018-01-29T23:08:09.669Z,8.30
2018-01-29T23:10:37.161Z,8.30
2018-01-29T23:13:04.614Z,8.30
2018-01-29T23:15:32.145Z,8.30
2018-01-29T23:17:59.620Z,8.30
2018-01-29T23:20:27.869Z,8.20
2018-01-29T23:22:55.452Z,8.20
2018-01-29T23:25:23.680Z,8.20
2018-01-29T23:27:51.200Z,8.20
2018-01-29T23:30:18.669Z,8.20
2018-01-29T23:32:46.169Z,8.20
2018-01-29T23:35:13.668Z,8.10
2018-01-29T23:37:41.171Z,8.20
2018-01-29T23:40:08.652Z,8.20
2018-01-29T23:42:36.153Z,8.20
2018-01-29T23:45:03.631Z,9.00
2018-01-29T23:47:31.140Z,8.20
2018-01-29T23:49:59.385Z,8.20
2018-01-29T23:52:26.944Z,8.20
2018-01-29T23:54:54.427Z,8.20
2018-01-29T23:57:21.928Z,8.20
2018-01-29T23:59:49.398Z,8.20
